createdAt,value
2022-11-25T00:01:16.470Z,25.83
2022-11-25T00:03:45.026Z,26.58
2022-11-25T00:06:14.882Z,24.63
2022-11-25T00:08:43.629Z,25.55
2022-11-25T00:11:12.404Z,28.05
2022-11-25T00:13:40.411Z,27.98
2022-11-25T00:16:12.725Z,26.02
2022-11-25T00:18:40.930Z,26.00
2022-11-25T00:21:13.532Z,29.30
2022-11-25T00:23:41.155Z,24.95
2022-11-25T00:26:13.178Z,27.40
2022-11-25T00:28:42.362Z,31.00
2022-11-25T00:31:22.864Z,31.33
2022-11-25T00:33:51.083Z,30.08
2022-11-25T00:36:28.640Z,30.75
2022-11-25T00:39:05.681Z,25.08
2022-11-25T00:41:51.672Z,31.02
2022-11-25T00:44:36.430Z,28.67
2022-11-25T00:47:19.094Z,27.52
2022-11-25T00:49:52.254Z,28.80
2022-11-25T00:52:21.645Z,26.67
2022-11-25T00:54:50.040Z,29.48
2022-11-25T00:57:19.146Z,28.25
2022-11-25T00:59:46.790Z,27.55
2022-11-25T01:02:15.753Z,31.45
2022-11-25T01:04:44.953Z,28.17
2022-11-25T01:07:15.642Z,29.15
2022-11-25T01:09:43.363Z,30.67
2022-11-25T01:12:10.716Z,29.08
2022-11-25T01:14:38.259Z,29.00
2022-11-25T01:17:06.048Z,32.05
2022-11-25T01:19:33.492Z,27.95
2022-11-25T01:22:00.818Z,29.55
2022-11-25T01:24:28.451Z,31.40
2022-11-25T01:26:56.080Z,28.83
2022-11-25T01:29:23.429Z,30.75
2022-11-25T01:31:57.293Z,30.42
2022-11-25T01:34:26.593Z,26.90
2022-11-25T01:36:57.731Z,30.02
2022-11-25T01:39:31.948Z,25.92
2022-11-25T01:42:01.566Z,29.20
2022-11-25T01:44:30.737Z,29.05
2022-11-25T01:47:19.154Z,27.62
2022-11-25T01:49:54.973Z,31.50
2022-11-25T01:52:29.720Z,30.08
2022-11-25T01:55:02.070Z,32.78
2022-11-25T01:57:38.091Z,33.08
2022-11-25T02:00:07.835Z,29.33
2022-11-25T02:02:45.552Z,35.03
2022-11-25T02:05:16.816Z,32.00
2022-11-25T02:07:46.411Z,30.88
2022-11-25T02:10:21.723Z,33.70
2022-11-25T02:12:49.345Z,35.97
2022-11-25T02:15:17.159Z,34.22
2022-11-25T02:17:44.841Z,31.20
2022-11-25T02:20:15.286Z,30.37
2022-11-25T02:23:07.051Z,31.33
2022-11-25T02:25:39.300Z,32.97
2022-11-25T02:28:12.558Z,30.10
2022-11-25T02:30:40.663Z,32.00
2022-11-25T02:33:08.062Z,31.58
2022-11-25T02:35:38.390Z,31.45
2022-11-25T02:38:12.567Z,29.95
2022-11-25T02:40:53.650Z,28.02
2022-11-25T02:43:21.417Z,32.65
2022-11-25T02:46:01.934Z,28.80
2022-11-25T02:48:53.192Z,31.10
2022-11-25T02:51:21.034Z,29.52
2022-11-25T02:53:48.779Z,31.48
2022-11-25T02:56:17.343Z,32.70
2022-11-25T02:58:44.811Z,31.73
2022-11-25T03:01:12.772Z,33.05
2022-11-25T03:03:40.359Z,35.55
2022-11-25T03:06:08.552Z,34.17
2022-11-25T03:08:38.053Z,36.25
2022-11-25T03:11:06.428Z,33.75
2022-11-25T03:13:33.963Z,31.17
2022-11-25T03:16:01.663Z,33.85
2022-11-25T03:18:29.074Z,34.30
2022-11-25T03:20:56.909Z,30.10
2022-11-25T03:23:25.073Z,35.83
2022-11-25T03:25:54.618Z,33.05
2022-11-25T03:28:22.151Z,35.53
2022-11-25T03:30:50.310Z,35.25
2022-11-25T03:33:17.665Z,30.42
2022-11-25T03:35:45.635Z,32.42
2022-11-25T03:38:13.221Z,34.90
2022-11-25T03:40:41.128Z,33.13
2022-11-25T03:43:09.225Z,36.10
2022-11-25T03:45:37.281Z,38.90
2022-11-25T03:48:05.116Z,35.22
2022-11-25T03:50:32.433Z,32.83
2022-11-25T03:53:00.079Z,32.65
2022-11-25T03:55:27.496Z,32.83
2022-11-25T03:57:55.413Z,34.47
2022-11-25T04:00:24.929Z,32.15
2022-11-25T04:02:53.519Z,34.78
2022-11-25T04:05:20.938Z,31.58
2022-11-25T04:07:52.202Z,31.60
2022-11-25T04:10:22.639Z,34.20
2022-11-25T04:12:50.199Z,30.45
2022-11-25T04:15:18.422Z,31.45
2022-11-25T04:17:46.428Z,30.62
2022-11-25T04:20:14.592Z,33.03
2022-11-25T04:22:43.119Z,32.40
2022-11-25T04:25:11.154Z,34.45
2022-11-25T04:27:38.525Z,36.67
2022-11-25T04:30:07.426Z,35.20
2022-11-25T04:32:37.584Z,39.42
2022-11-25T04:35:06.057Z,40.03
2022-11-25T04:37:33.831Z,39.67
2022-11-25T04:40:01.472Z,43.60
2022-11-25T04:42:32.243Z,35.72
2022-11-25T04:45:22.096Z,34.88
2022-11-25T04:47:48.765Z,38.42
2022-11-25T04:50:19.164Z,38.95
2022-11-25T04:52:47.646Z,40.28
2022-11-25T04:55:15.502Z,41.17
2022-11-25T04:57:43.209Z,35.72
2022-11-25T05:00:11.632Z,37.40
2022-11-25T05:02:39.421Z,40.55
2022-11-25T05:05:07.876Z,36.05
2022-11-25T05:07:35.697Z,35.50
2022-11-25T05:10:03.550Z,38.75
2022-11-25T05:12:31.378Z,40.70
2022-11-25T05:14:59.268Z,41.70
2022-11-25T05:17:29.280Z,36.90
2022-11-25T05:19:56.996Z,38.13
2022-11-25T05:22:27.492Z,40.42
2022-11-25T05:24:55.121Z,37.53
2022-11-25T05:27:23.878Z,38.78
2022-11-25T05:29:56.005Z,36.58
2022-11-25T05:32:24.200Z,37.00
2022-11-25T05:34:51.690Z,37.67
2022-11-25T05:37:24.164Z,35.20
2022-11-25T05:39:53.431Z,38.63
2022-11-25T05:42:21.538Z,39.08
2022-11-25T05:44:48.923Z,36.42
2022-11-25T05:47:16.606Z,38.55
2022-11-25T05:49:44.876Z,37.80
2022-11-25T05:52:12.571Z,37.65
2022-11-25T05:54:40.751Z,37.35
2022-11-25T05:57:08.135Z,35.22
2022-11-25T05:59:39.279Z,36.10
2022-11-25T06:02:07.187Z,35.42
2022-11-25T06:04:35.178Z,35.17
2022-11-25T06:07:03.201Z,32.47
2022-11-25T06:09:30.711Z,33.70
2022-11-25T06:11:58.486Z,35.75
2022-11-25T06:14:25.942Z,32.30
2022-11-25T06:16:53.545Z,35.30
2022-11-25T06:19:22.064Z,37.10
2022-11-25T06:21:49.690Z,36.75
2022-11-25T06:24:17.452Z,34.78
2022-11-25T06:26:45.204Z,33.90
2022-11-25T06:29:12.530Z,6.12
2022-11-25T06:31:40.782Z,34.03
2022-11-25T06:34:09.766Z,36.55
2022-11-25T06:36:39.976Z,37.95
2022-11-25T06:39:07.311Z,37.33
2022-11-25T06:41:34.891Z,38.75
2022-11-25T06:44:02.247Z,39.17
2022-11-25T06:46:29.699Z,40.55
2022-11-25T06:49:01.400Z,41.80
2022-11-25T06:51:29.003Z,37.80
2022-11-25T06:53:56.693Z,41.80
2022-11-25T06:56:26.429Z,38.30
2022-11-25T06:58:54.801Z,39.15
2022-11-25T07:01:27.860Z,2.28
2022-11-25T07:03:59.241Z,42.83
2022-11-25T07:06:27.388Z,40.88
2022-11-25T07:08:54.999Z,39.17
2022-11-25T07:11:40.717Z,38.30
2022-11-25T07:14:15.059Z,36.65
2022-11-25T07:16:44.225Z,36.63
2022-11-25T07:19:13.761Z,42.85
2022-11-25T07:21:44.461Z,42.88
2022-11-25T07:24:14.063Z,53.47
2022-11-25T07:26:42.847Z,52.08
2022-11-25T07:32:02.422Z,39.00
2022-11-25T07:34:31.892Z,38.83
2022-11-25T07:36:59.224Z,34.40
2022-11-25T07:39:26.808Z,34.85
2022-11-25T07:41:54.288Z,34.00
2022-11-25T07:44:21.696Z,39.63
2022-11-25T07:46:50.453Z,33.80
2022-11-25T07:49:20.631Z,32.60
2022-11-25T07:51:55.855Z,38.20
2022-11-25T07:54:24.085Z,31.00
2022-11-25T07:56:51.710Z,35.90
2022-11-25T07:59:21.572Z,31.10
2022-11-25T08:01:51.032Z,31.02
2022-11-25T08:04:20.745Z,34.58
2022-11-25T08:06:50.820Z,32.95
2022-11-25T08:09:20.761Z,30.50
2022-11-25T08:11:49.255Z,28.73
2022-11-25T08:14:16.816Z,28.45
2022-11-25T08:16:44.551Z,29.35
2022-11-25T08:19:14.779Z,28.95
2022-11-25T08:21:42.235Z,27.55
2022-11-25T08:24:20.660Z,26.62
2022-11-25T08:26:49.062Z,25.75
2022-11-25T08:29:17.941Z,24.75
2022-11-25T08:31:45.508Z,22.70
2022-11-25T08:34:19.936Z,24.05
2022-11-25T08:36:48.869Z,23.23
2022-11-25T08:42:07.752Z,22.70
2022-11-25T08:44:35.630Z,25.83
2022-11-25T08:47:03.108Z,20.75
2022-11-25T08:49:32.771Z,22.95
2022-11-25T08:52:03.811Z,20.45
2022-11-25T08:54:31.225Z,25.62
2022-11-25T08:56:59.344Z,21.75
2022-11-25T08:59:26.936Z,22.87
2022-11-25T09:01:55.454Z,21.65
2022-11-25T09:04:23.113Z,22.20
2022-11-25T09:06:50.934Z,21.77
2022-11-25T09:09:18.299Z,20.45
2022-11-25T09:11:45.762Z,21.23
2022-11-25T09:14:13.819Z,18.77
2022-11-25T09:16:41.248Z,19.98
2022-11-25T09:19:08.936Z,23.92
2022-11-25T09:21:36.532Z,24.10
2022-11-25T09:24:04.024Z,22.20
2022-11-25T09:26:36.645Z,19.02
2022-11-25T09:29:04.302Z,22.67
2022-11-25T09:31:31.853Z,18.90
2022-11-25T09:33:59.406Z,21.12
2022-11-25T09:36:26.980Z,18.40
2022-11-25T09:38:54.363Z,20.15
2022-11-25T09:42:34.768Z,16.60
2022-11-25T09:45:40.948Z,70.65
2022-11-25T09:50:53.172Z,24.00
2022-11-25T09:53:23.229Z,18.10
2022-11-25T09:55:59.986Z,19.37
2022-11-25T09:59:03.201Z,20.27
2022-11-25T10:01:31.970Z,17.75
2022-11-25T10:04:06.093Z,19.05
2022-11-25T10:06:37.019Z,18.87
2022-11-25T10:09:12.611Z,17.35
2022-11-25T10:12:00.545Z,19.00
2022-11-25T10:14:39.215Z,16.17
2022-11-25T10:17:09.453Z,17.75
2022-11-25T10:19:41.733Z,19.17
2022-11-25T10:22:30.024Z,17.87
2022-11-25T10:25:00.894Z,16.45
2022-11-25T10:27:52.169Z,15.73
2022-11-25T10:30:22.639Z,17.12
2022-11-25T10:33:14.131Z,19.23
2022-11-25T10:35:49.708Z,18.42
2022-11-25T10:38:25.822Z,16.42
2022-11-25T10:40:54.902Z,17.60
2022-11-25T10:43:26.008Z,18.33
2022-11-25T10:46:16.727Z,20.02
2022-11-25T10:48:53.124Z,19.58
2022-11-25T10:51:35.851Z,17.23
2022-11-25T10:54:14.799Z,19.02
2022-11-25T10:57:08.477Z,20.88
2022-11-25T10:59:38.071Z,20.35
2022-11-25T11:02:21.555Z,21.20
2022-11-25T11:04:54.233Z,16.83
2022-11-25T11:07:22.528Z,18.73
2022-11-25T11:09:50.086Z,20.98
2022-11-25T11:12:22.200Z,20.40
2022-11-25T11:14:50.297Z,20.83
2022-11-25T11:17:36.803Z,19.35
2022-11-25T11:20:08.307Z,19.12
2022-11-25T11:22:37.184Z,20.70
2022-11-25T11:25:27.054Z,19.85
2022-11-25T11:27:54.744Z,20.12
2022-11-25T11:30:31.068Z,21.30
2022-11-25T11:33:07.318Z,22.60
2022-11-25T11:35:43.886Z,17.50
2022-11-25T11:38:17.100Z,18.42
2022-11-25T11:40:47.421Z,18.90
2022-11-25T11:43:39.644Z,20.52
2022-11-25T11:46:25.494Z,19.05
2022-11-25T11:49:05.030Z,20.17
2022-11-25T11:51:36.641Z,15.98
2022-11-25T11:54:12.859Z,18.50
2022-11-25T11:56:42.711Z,18.83
2022-11-25T11:59:46.246Z,17.80
2022-11-25T12:02:20.454Z,17.92
2022-11-25T12:04:56.966Z,16.83
2022-11-25T12:07:35.834Z,15.57
2022-11-25T12:10:38.847Z,20.10
2022-11-25T12:13:12.183Z,15.52
2022-11-25T12:15:39.646Z,16.55
2022-11-25T12:18:20.021Z,15.00
2022-11-25T12:21:01.944Z,15.57
2022-11-25T12:23:57.546Z,16.27
2022-11-25T12:26:40.368Z,17.90
2022-11-25T12:29:13.726Z,14.93
2022-11-25T12:32:10.061Z,15.73
2022-11-25T12:34:44.547Z,16.30
2022-11-25T12:39:50.146Z,14.25
2022-11-25T12:42:25.471Z,15.95
2022-11-25T12:44:58.257Z,15.95
2022-11-25T12:47:26.360Z,16.15
2022-11-25T12:49:55.170Z,15.10
2022-11-25T12:52:47.109Z,16.60
2022-11-25T12:55:25.523Z,16.45
2022-11-25T12:58:10.014Z,13.52
2022-11-25T13:01:03.593Z,11.82
2022-11-25T13:03:39.836Z,11.25
2022-11-25T13:06:33.728Z,14.63
2022-11-25T13:09:10.203Z,13.65
2022-11-25T13:11:59.126Z,11.85
2022-11-25T13:14:51.849Z,11.57
2022-11-25T13:17:20.471Z,13.52
2022-11-25T13:19:48.136Z,13.43
2022-11-25T13:22:18.342Z,14.15
2022-11-25T13:24:46.067Z,11.90
2022-11-25T13:27:35.981Z,10.88
2022-11-25T13:30:04.571Z,13.00
2022-11-25T13:32:35.127Z,10.95
2022-11-25T13:35:21.187Z,12.93
2022-11-25T13:37:49.670Z,13.48
2022-11-25T13:40:30.368Z,17.80
2022-11-25T13:43:00.429Z,19.05
2022-11-25T13:45:30.955Z,20.17
2022-11-25T13:48:27.927Z,25.12
2022-11-25T13:51:14.144Z,26.08
2022-11-25T13:53:41.839Z,23.58
2022-11-25T13:56:15.693Z,26.33
2022-11-25T13:59:12.024Z,22.92
2022-11-25T14:01:41.345Z,20.05
2022-11-25T14:04:09.502Z,20.65
2022-11-25T14:07:18.517Z,19.60
2022-11-25T14:09:57.610Z,16.92
2022-11-25T14:12:37.261Z,20.65
2022-11-25T14:15:13.853Z,19.42
2022-11-25T14:17:47.746Z,17.67
2022-11-25T14:20:49.243Z,19.30
2022-11-25T14:23:41.821Z,21.62
2022-11-25T14:26:41.750Z,18.50
2022-11-25T14:29:37.598Z,21.35
2022-11-25T14:32:25.781Z,30.60
2022-11-25T14:34:58.163Z,29.08
2022-11-25T14:37:44.431Z,25.70
2022-11-25T14:40:21.497Z,22.35
2022-11-25T14:42:52.645Z,20.10
2022-11-25T14:45:31.493Z,23.50
2022-11-25T14:48:12.956Z,25.15
2022-11-25T14:50:41.314Z,32.47
2022-11-25T14:53:10.179Z,29.42
2022-11-25T14:55:37.928Z,37.22
2022-11-25T14:58:05.416Z,33.33
2022-11-25T15:00:33.060Z,28.83
2022-11-25T15:03:03.228Z,29.65
2022-11-25T15:05:35.892Z,34.08
2022-11-25T15:08:06.106Z,33.50
2022-11-25T15:10:35.741Z,34.38
2022-11-25T15:13:11.732Z,32.05
2022-11-25T15:15:39.113Z,27.92
2022-11-25T15:18:07.407Z,26.33
2022-11-25T15:20:35.787Z,25.30
2022-11-25T15:23:03.344Z,25.65
2022-11-25T15:25:30.914Z,24.83
2022-11-25T15:27:58.533Z,33.00
2022-11-25T15:30:29.239Z,28.83
2022-11-25T15:32:57.266Z,29.33
2022-11-25T15:35:26.498Z,29.98
2022-11-25T15:37:56.743Z,42.53
2022-11-25T15:40:36.911Z,44.78
2022-11-25T15:43:06.894Z,44.20
2022-11-25T15:45:44.081Z,42.50
2022-11-25T15:48:33.605Z,65.22
2022-11-25T15:51:05.025Z,80.00
2022-11-25T15:53:36.975Z,66.97
2022-11-25T15:56:07.080Z,37.33
2022-11-25T15:58:34.679Z,29.33
2022-11-25T16:01:25.326Z,33.40
2022-11-25T16:03:52.953Z,44.70
2022-11-25T16:06:22.765Z,46.08
2022-11-25T16:08:56.008Z,40.88
2022-11-25T16:11:25.604Z,36.58
2022-11-25T16:13:53.308Z,37.13
2022-11-25T16:16:28.968Z,40.38
2022-11-25T16:19:02.705Z,58.53
2022-11-25T16:21:50.204Z,64.18
2022-11-25T16:24:29.589Z,147.62
2022-11-25T16:27:03.732Z,85.07
2022-11-25T16:29:37.834Z,118.22
2022-11-25T16:32:17.897Z,142.07
2022-11-25T16:34:46.143Z,164.25
2022-11-25T16:37:13.745Z,184.02
2022-11-25T16:39:41.068Z,131.18
2022-11-25T16:42:17.220Z,216.20
2022-11-25T16:44:48.675Z,245.05
2022-11-25T16:47:17.543Z,188.27
2022-11-25T16:49:45.027Z,165.60
2022-11-25T16:52:13.016Z,168.20
2022-11-25T16:54:41.848Z,104.10
2022-11-25T16:57:15.840Z,117.28
2022-11-25T16:59:44.491Z,113.72
2022-11-25T17:02:17.346Z,111.25
2022-11-25T17:04:46.305Z,108.28
2022-11-25T17:10:03.547Z,125.68
2022-11-25T17:12:33.894Z,134.70
2022-11-25T17:15:02.313Z,122.87
2022-11-25T17:17:30.903Z,110.30
2022-11-25T17:19:58.794Z,92.40
2022-11-25T17:22:27.692Z,85.97
2022-11-25T17:24:57.433Z,74.62
2022-11-25T17:27:30.415Z,69.47
2022-11-25T17:30:01.091Z,73.60
2022-11-25T17:32:29.167Z,73.80
2022-11-25T17:34:57.205Z,79.10
2022-11-25T17:37:26.129Z,70.40
2022-11-25T17:39:54.480Z,116.35
2022-11-25T17:42:28.032Z,97.82
2022-11-25T17:44:57.502Z,82.65
2022-11-25T17:47:25.228Z,82.35
2022-11-25T17:49:53.619Z,82.35
2022-11-25T17:52:21.457Z,102.28
2022-11-25T17:54:49.212Z,127.28
2022-11-25T17:57:20.405Z,103.18
2022-11-25T17:59:48.398Z,125.07
2022-11-25T18:02:21.773Z,137.75
2022-11-25T18:04:50.037Z,134.37
2022-11-25T18:07:18.187Z,125.32
2022-11-25T18:09:45.847Z,122.60
2022-11-25T18:12:17.591Z,122.82
2022-11-25T18:14:46.560Z,121.60
2022-11-25T18:17:17.658Z,123.65
2022-11-25T18:19:49.818Z,160.68
2022-11-25T18:22:21.096Z,141.75
2022-11-25T18:24:48.995Z,157.23
2022-11-25T18:27:23.317Z,145.55
2022-11-25T18:32:19.081Z,154.27
2022-11-25T18:34:47.056Z,148.38
2022-11-25T18:37:15.547Z,117.32
2022-11-25T18:39:43.368Z,95.90
2022-11-25T18:42:22.925Z,113.93
2022-11-25T18:44:51.093Z,165.27
2022-11-25T18:47:18.825Z,185.55
2022-11-25T18:49:51.025Z,162.27
2022-11-25T18:52:22.326Z,155.87
2022-11-25T18:54:50.372Z,155.05
2022-11-25T18:57:18.409Z,152.80
2022-11-25T18:59:52.748Z,145.38
2022-11-25T19:02:35.306Z,116.80
2022-11-25T19:05:06.553Z,125.87
2022-11-25T19:07:34.619Z,103.32
2022-11-25T19:10:02.320Z,102.82
2022-11-25T19:12:30.131Z,86.72
2022-11-25T19:14:57.970Z,89.28
2022-11-25T19:17:26.515Z,91.63
2022-11-25T19:19:57.453Z,87.35
2022-11-25T19:22:26.284Z,97.57
2022-11-25T19:24:57.007Z,93.12
2022-11-25T19:27:25.357Z,93.40
2022-11-25T19:29:54.297Z,95.30
2022-11-25T19:32:25.293Z,109.50
2022-11-25T19:35:21.249Z,118.90
2022-11-25T19:37:49.070Z,115.35
2022-11-25T19:40:18.485Z,115.28
2022-11-25T19:42:48.725Z,132.07
2022-11-25T19:45:20.746Z,134.93
2022-11-25T19:47:52.386Z,145.00
2022-11-25T19:50:27.692Z,156.15
2022-11-25T19:52:55.748Z,147.35
2022-11-25T19:55:26.798Z,161.07
2022-11-25T19:57:56.297Z,152.50
2022-11-25T20:00:24.732Z,163.07
2022-11-25T20:02:54.625Z,184.35
2022-11-25T20:05:27.045Z,168.73
2022-11-25T20:07:55.971Z,166.68
2022-11-25T20:10:26.952Z,166.88
2022-11-25T20:12:56.196Z,161.30
2022-11-25T20:15:24.693Z,147.73
2022-11-25T20:17:54.941Z,152.15
2022-11-25T20:20:30.706Z,148.73
2022-11-25T20:23:00.928Z,150.05
2022-11-25T20:25:29.651Z,143.30
2022-11-25T20:27:57.951Z,123.68
2022-11-25T20:30:28.852Z,132.45
2022-11-25T20:32:56.995Z,139.25
2022-11-25T20:35:25.638Z,130.60
2022-11-25T20:37:58.357Z,126.00
2022-11-25T20:40:43.014Z,121.87
2022-11-25T20:43:26.013Z,114.45
2022-11-25T20:45:54.604Z,120.78
2022-11-25T20:48:23.466Z,114.50
2022-11-25T20:50:54.153Z,115.78
2022-11-25T20:53:22.385Z,112.75
2022-11-25T20:55:50.900Z,108.53
2022-11-25T20:58:25.556Z,108.18
2022-11-25T21:00:57.604Z,108.53
2022-11-25T21:03:26.619Z,107.20
2022-11-25T21:05:56.054Z,103.95
2022-11-25T21:08:25.385Z,96.30
2022-11-25T21:10:55.689Z,101.68
2022-11-25T21:13:26.306Z,91.45
2022-11-25T21:15:54.043Z,97.85
2022-11-25T21:18:21.810Z,97.70
2022-11-25T21:20:51.360Z,109.43
2022-11-25T21:23:27.886Z,101.43
2022-11-25T21:26:04.936Z,115.00
2022-11-25T21:28:34.156Z,115.22
2022-11-25T21:31:04.810Z,113.82
2022-11-25T21:33:34.414Z,109.80
2022-11-25T21:36:02.263Z,118.75
2022-11-25T21:38:30.064Z,121.82
2022-11-25T21:40:58.380Z,122.32
2022-11-25T21:43:32.542Z,138.43
2022-11-25T21:46:05.366Z,141.45
2022-11-25T21:48:33.659Z,140.32
2022-11-25T21:51:00.963Z,126.47
2022-11-25T21:53:31.947Z,128.10
2022-11-25T21:56:02.272Z,162.02
2022-11-25T21:58:30.288Z,149.48
2022-11-25T22:00:59.855Z,171.50
2022-11-25T22:03:30.600Z,184.07
2022-11-25T22:05:57.904Z,154.23
2022-11-25T22:08:25.286Z,155.77
2022-11-25T22:10:54.754Z,136.18
2022-11-25T22:13:32.509Z,120.90
2022-11-25T22:16:00.203Z,107.35
2022-11-25T22:18:35.316Z,98.78
2022-11-25T22:21:03.461Z,111.53
2022-11-25T22:23:30.809Z,111.93
2022-11-25T22:25:58.507Z,115.53
2022-11-25T22:28:27.734Z,115.93
2022-11-25T22:30:57.429Z,114.50
2022-11-25T22:33:33.129Z,88.70
2022-11-25T22:36:01.399Z,107.47
2022-11-25T22:38:29.702Z,106.55
2022-11-25T22:41:01.666Z,99.97
2022-11-25T22:43:35.252Z,103.30
2022-11-25T22:46:04.058Z,104.35
2022-11-25T22:48:34.110Z,107.20
2022-11-25T22:51:03.690Z,98.93
2022-11-25T22:53:31.192Z,101.03
2022-11-25T22:55:58.820Z,113.80
2022-11-25T22:58:26.590Z,137.62
2022-11-25T23:00:55.274Z,117.90
2022-11-25T23:03:33.392Z,121.65
2022-11-25T23:06:03.225Z,97.70
2022-11-25T23:08:31.811Z,95.57
2022-11-25T23:10:59.226Z,92.20
2022-11-25T23:13:26.688Z,112.90
2022-11-25T23:15:56.551Z,75.40
2022-11-25T23:18:43.374Z,85.93
2022-11-25T23:21:22.956Z,76.30
2022-11-25T23:23:50.879Z,106.80
2022-11-25T23:29:03.695Z,86.32
2022-11-25T23:31:34.837Z,88.78
2022-11-25T23:34:04.072Z,86.28
2022-11-25T23:36:42.054Z,67.37
2022-11-25T23:39:19.305Z,105.68
2022-11-25T23:41:47.335Z,85.65
2022-11-25T23:44:30.751Z,75.00
2022-11-25T23:47:00.859Z,63.87
2022-11-25T23:49:36.865Z,50.78
2022-11-25T23:52:08.035Z,48.38
2022-11-25T23:54:42.795Z,50.50
2022-11-25T23:57:17.899Z,60.55
